Magnolia, Alabama
Current Conditions -  °F | °C
As of 3:35 PM on Friday 31 Oct 2014 (Local Time) from KDYA Reporting Station
Broken Clouds Broken Clouds  
Wind Chill: 69°   Ceiling: 5000
Heat Index: 69°   Visibility: 10mi
Dew Point: 43°   Wind: 14mph
Humidity: 39%   Direction: 310°NW
Pressure: 29.97"   Gusts: 22mph
Location:  32.14°N, 87.67°W
Report Text: KDYA 312035Z AUTO 31012G19KT 10SM BKN050 20/06 A2997 RMK AO2 T02040061
Loading
Personal Weather Stations






























Interactive Weather Map
Tropical Storm Tracking
New forecast layout! Learn more

10-Day Weather Forecast

Advertisements
Track Severe Weather on mobile